createdAt,value
2019-02-26T00:00:12.824Z,62.60
2019-02-26T00:01:14.402Z,66.10
2019-02-26T00:02:11.803Z,67.60
2019-02-26T00:03:11.805Z,66.00
2019-02-26T00:04:11.802Z,69.00
2019-02-26T00:05:11.772Z,69.90
2019-02-26T00:06:11.798Z,67.40
2019-02-26T00:07:14.240Z,67.90
2019-02-26T00:08:11.737Z,68.40
2019-02-26T00:09:11.752Z,68.50
2019-02-26T00:10:11.719Z,64.90
2019-02-26T00:11:11.740Z,66.50
2019-02-26T00:12:11.692Z,70.00
2019-02-26T00:13:11.686Z,65.90
2019-02-26T00:14:15.491Z,66.40
2019-02-26T00:15:12.661Z,65.80
2019-02-26T00:16:13.402Z,65.20
2019-02-26T00:17:13.027Z,66.40
2019-02-26T00:18:13.820Z,65.20
2019-02-26T00:19:12.402Z,65.50
2019-02-26T00:20:12.805Z,65.40
2019-02-26T00:21:11.614Z,63.90
2019-02-26T00:22:13.393Z,62.60
2019-02-26T00:23:11.584Z,68.50
2019-02-26T00:24:12.821Z,66.80
2019-02-26T00:25:12.846Z,62.30
2019-02-26T00:26:12.811Z,66.70
2019-02-26T00:27:11.546Z,66.70
2019-02-26T00:28:13.066Z,62.30
2019-02-26T00:29:11.530Z,65.60
2019-02-26T00:30:13.617Z,66.70
2019-02-26T00:31:11.552Z,65.70
2019-02-26T00:32:12.283Z,65.40
2019-02-26T00:33:11.486Z,64.20
2019-02-26T00:34:14.013Z,66.30
2019-02-26T00:35:11.462Z,63.10
2019-02-26T00:36:13.229Z,72.10
2019-02-26T00:37:11.429Z,63.80
2019-02-26T00:38:13.272Z,62.70
2019-02-26T00:39:11.427Z,62.40
2019-02-26T00:40:12.336Z,63.40
2019-02-26T00:41:11.403Z,62.60
2019-02-26T00:42:11.384Z,64.80
2019-02-26T00:43:11.421Z,62.80
2019-02-26T00:44:11.359Z,60.10
2019-02-26T00:45:11.368Z,59.30
2019-02-26T00:46:11.374Z,60.10
2019-02-26T00:47:11.324Z,61.10
2019-02-26T00:48:11.317Z,60.10
2019-02-26T00:49:11.312Z,61.80
2019-02-26T00:50:12.030Z,61.70
2019-02-26T00:51:11.306Z,57.80
2019-02-26T00:52:13.219Z,58.80
2019-02-26T00:53:11.260Z,58.90
2019-02-26T00:54:11.259Z,61.40
2019-02-26T00:55:11.249Z,60.80
2019-02-26T00:56:11.245Z,57.90
2019-02-26T00:57:12.271Z,59.60
2019-02-26T00:58:12.785Z,60.80
2019-02-26T00:59:11.199Z,57.70
2019-02-26T01:00:12.337Z,59.40
2019-02-26T01:01:12.919Z,60.00
2019-02-26T01:02:11.176Z,58.50
2019-02-26T01:03:13.173Z,59.20
2019-02-26T01:04:11.149Z,61.40
2019-02-26T01:05:12.968Z,58.40
2019-02-26T01:06:11.127Z,61.10
2019-02-26T01:07:11.138Z,61.40
2019-02-26T01:08:13.330Z,59.00
2019-02-26T01:09:11.325Z,64.90
2019-02-26T01:10:11.710Z,58.80
2019-02-26T01:11:11.069Z,59.70
2019-02-26T01:12:11.794Z,60.30
2019-02-26T01:13:11.065Z,62.30
2019-02-26T01:14:11.051Z,61.60
2019-02-26T01:15:11.679Z,61.00
2019-02-26T01:16:11.018Z,59.60
2019-02-26T01:17:12.610Z,61.00
2019-02-26T01:18:10.998Z,63.50
2019-02-26T01:19:12.988Z,63.90
2019-02-26T01:20:10.985Z,65.10
2019-02-26T01:21:10.962Z,63.20
2019-02-26T01:22:11.001Z,62.90
2019-02-26T01:23:10.943Z,60.20
2019-02-26T01:24:10.950Z,63.20
2019-02-26T01:25:12.735Z,64.20
2019-02-26T01:26:12.145Z,62.70
2019-02-26T01:27:10.906Z,61.70
2019-02-26T01:28:14.133Z,63.00
2019-02-26T01:29:16.011Z,67.80
2019-02-26T01:30:11.875Z,66.90
2019-02-26T01:31:10.860Z,67.80
2019-02-26T01:32:13.218Z,65.50
2019-02-26T01:33:10.866Z,65.20
2019-02-26T01:34:12.019Z,64.30
2019-02-26T01:35:12.819Z,62.90
2019-02-26T01:36:10.825Z,66.10
2019-02-26T01:37:12.053Z,66.40
2019-02-26T01:38:12.616Z,65.40
2019-02-26T01:39:11.993Z,62.60
2019-02-26T01:40:13.806Z,65.70
2019-02-26T01:41:13.871Z,68.70
2019-02-26T01:42:13.251Z,67.60
2019-02-26T01:43:10.763Z,68.70
2019-02-26T01:44:10.730Z,67.10
2019-02-26T01:45:10.713Z,65.30
2019-02-26T01:46:11.679Z,66.60
2019-02-26T01:47:10.686Z,64.20
2019-02-26T01:48:11.845Z,69.60
2019-02-26T01:49:11.858Z,68.40
2019-02-26T01:50:12.839Z,65.70
2019-02-26T01:51:10.650Z,69.00
2019-02-26T01:52:12.697Z,66.10
2019-02-26T01:53:12.112Z,69.00
2019-02-26T01:54:12.216Z,70.10
2019-02-26T01:55:10.644Z,67.50
2019-02-26T01:56:10.614Z,67.40
2019-02-26T01:57:10.582Z,64.30
2019-02-26T01:58:10.585Z,68.30
2019-02-26T01:59:10.578Z,70.10
2019-02-26T02:00:10.570Z,65.60
2019-02-26T02:01:14.060Z,71.20
2019-02-26T02:02:14.766Z,68.60
2019-02-26T02:03:11.588Z,70.70
2019-02-26T02:04:12.691Z,70.10
2019-02-26T02:05:10.498Z,70.40
2019-02-26T02:06:11.797Z,70.60
2019-02-26T02:07:10.491Z,69.70
2019-02-26T02:08:13.085Z,70.80
2019-02-26T02:09:13.235Z,71.60
2019-02-26T02:10:10.439Z,73.00
2019-02-26T02:11:10.429Z,71.10
2019-02-26T02:12:11.024Z,68.40
2019-02-26T02:13:11.446Z,69.80
2019-02-26T02:14:12.642Z,73.00
2019-02-26T02:15:12.225Z,73.90
2019-02-26T02:16:10.377Z,71.30
2019-02-26T02:17:10.876Z,69.50
2019-02-26T02:18:10.375Z,74.60
2019-02-26T02:19:10.341Z,75.30
2019-02-26T02:20:12.705Z,72.30
2019-02-26T02:21:10.323Z,72.80
2019-02-26T02:22:12.055Z,71.00
2019-02-26T02:23:10.343Z,69.30
2019-02-26T02:24:12.688Z,69.10
2019-02-26T02:25:10.278Z,71.80
2019-02-26T02:26:11.619Z,69.10
2019-02-26T02:27:12.502Z,72.20
2019-02-26T02:28:10.266Z,71.90
2019-02-26T02:29:12.619Z,70.90
2019-02-26T02:30:14.412Z,74.60
2019-02-26T02:31:11.220Z,69.90
2019-02-26T02:32:10.202Z,73.60
2019-02-26T02:33:10.231Z,72.30
2019-02-26T02:34:10.180Z,71.80
2019-02-26T02:35:12.737Z,71.20
2019-02-26T02:36:11.742Z,70.90
2019-02-26T02:37:10.159Z,72.80
2019-02-26T02:38:10.139Z,72.00
2019-02-26T02:39:12.914Z,71.80
2019-02-26T02:40:11.109Z,75.20
2019-02-26T02:41:10.109Z,72.30
2019-02-26T02:42:10.989Z,72.70
2019-02-26T02:43:12.295Z,74.40
2019-02-26T02:44:12.301Z,69.40
2019-02-26T02:45:11.365Z,67.80
2019-02-26T02:46:10.052Z,70.10
2019-02-26T02:47:11.287Z,72.90
2019-02-26T02:48:11.688Z,70.30
2019-02-26T02:49:12.574Z,74.70
2019-02-26T02:50:12.035Z,68.80
2019-02-26T02:51:13.145Z,68.60
2019-02-26T02:52:11.816Z,69.70
2019-02-26T02:53:09.969Z,69.50
2019-02-26T02:54:12.116Z,72.50
2019-02-26T02:55:13.868Z,69.10
2019-02-26T02:56:12.902Z,67.30
2019-02-26T02:57:10.106Z,76.20
2019-02-26T02:58:12.395Z,72.00
2019-02-26T02:59:11.300Z,67.80
2019-02-26T03:00:09.914Z,69.60
2019-02-26T03:01:09.940Z,67.90
2019-02-26T03:02:12.019Z,71.80
2019-02-26T03:03:09.865Z,69.60
2019-02-26T03:04:09.867Z,68.90
2019-02-26T03:05:09.841Z,69.40
2019-02-26T03:06:12.256Z,71.60
2019-02-26T03:07:09.854Z,67.10
2019-02-26T03:08:10.776Z,69.50
2019-02-26T03:09:11.640Z,71.80
2019-02-26T03:10:11.905Z,66.70
2019-02-26T03:11:09.787Z,69.40
2019-02-26T03:12:09.767Z,69.60
2019-02-26T03:13:09.859Z,68.10
2019-02-26T03:14:11.016Z,72.00
2019-02-26T03:15:10.151Z,68.60
2019-02-26T03:16:09.742Z,69.50
2019-02-26T03:17:11.070Z,67.30
2019-02-26T03:18:12.069Z,70.40
2019-02-26T03:19:12.111Z,71.50
2019-02-26T03:20:10.147Z,71.70
2019-02-26T03:21:09.675Z,69.40
2019-02-26T03:22:12.212Z,72.60
2019-02-26T03:23:12.122Z,70.90
2019-02-26T03:24:10.648Z,68.80
2019-02-26T03:25:09.652Z,71.80
2019-02-26T03:26:12.595Z,72.50
2019-02-26T03:27:09.617Z,73.20
2019-02-26T03:28:09.659Z,74.10
2019-02-26T03:29:09.590Z,68.60
2019-02-26T03:30:09.585Z,72.80
2019-02-26T03:31:09.579Z,70.30
2019-02-26T03:32:09.558Z,69.70
2019-02-26T03:33:09.566Z,68.10
2019-02-26T03:34:14.616Z,70.90
2019-02-26T03:35:13.112Z,70.20
2019-02-26T03:36:11.292Z,71.20
2019-02-26T03:37:11.033Z,70.20
2019-02-26T03:38:09.520Z,70.40
2019-02-26T03:39:09.488Z,69.40
2019-02-26T03:40:09.496Z,69.70
2019-02-26T03:41:09.467Z,70.50
2019-02-26T03:42:10.607Z,71.70
2019-02-26T03:43:10.874Z,74.80
2019-02-26T03:44:09.429Z,71.20
2019-02-26T03:45:09.427Z,73.40
2019-02-26T03:46:09.408Z,72.90
2019-02-26T03:47:09.406Z,70.80
2019-02-26T03:48:09.389Z,70.40
2019-02-26T03:49:09.410Z,72.00
2019-02-26T03:50:09.511Z,72.80
2019-02-26T03:51:09.360Z,73.50
2019-02-26T03:52:09.338Z,70.10
2019-02-26T03:53:10.091Z,74.40
2019-02-26T03:54:09.324Z,71.80
2019-02-26T03:55:11.490Z,82.30
2019-02-26T03:56:14.339Z,77.90
2019-02-26T03:57:11.399Z,85.30
2019-02-26T03:58:09.308Z,80.40
2019-02-26T03:59:11.645Z,76.60
2019-02-26T04:00:11.382Z,76.50
2019-02-26T04:01:10.945Z,77.20
2019-02-26T04:02:09.969Z,76.70
2019-02-26T04:03:11.763Z,76.70
2019-02-26T04:04:09.219Z,73.90
2019-02-26T04:05:09.202Z,72.40
2019-02-26T04:06:10.065Z,75.30
2019-02-26T04:07:10.583Z,72.30
2019-02-26T04:08:09.194Z,71.00
2019-02-26T04:09:11.044Z,74.00
2019-02-26T04:10:09.165Z,71.70
2019-02-26T04:11:09.164Z,72.50
2019-02-26T04:12:11.270Z,71.30
2019-02-26T04:13:09.138Z,70.50
2019-02-26T04:14:12.187Z,69.70
2019-02-26T04:15:09.100Z,71.90
2019-02-26T04:16:09.105Z,69.80
2019-02-26T04:17:09.207Z,70.10
2019-02-26T04:18:09.070Z,69.90
2019-02-26T04:19:09.481Z,71.40
2019-02-26T04:20:09.057Z,71.00
2019-02-26T04:21:11.760Z,68.90
2019-02-26T04:22:12.435Z,72.40
2019-02-26T04:23:11.387Z,72.30
2019-02-26T04:24:11.312Z,70.30
2019-02-26T04:25:09.422Z,68.70
2019-02-26T04:26:09.001Z,70.90
2019-02-26T04:27:08.987Z,72.00
2019-02-26T04:28:10.949Z,71.10
2019-02-26T04:29:08.954Z,71.80
2019-02-26T04:30:10.901Z,69.70
2019-02-26T04:31:08.929Z,69.80
2019-02-26T04:32:09.531Z,69.00
2019-02-26T04:33:09.611Z,69.10
2019-02-26T04:34:08.908Z,70.70
2019-02-26T04:35:08.892Z,70.00
2019-02-26T04:36:09.773Z,73.90
2019-02-26T04:37:10.405Z,69.50
2019-02-26T04:38:08.861Z,69.10
2019-02-26T04:39:10.596Z,69.50
2019-02-26T04:40:11.828Z,70.40
2019-02-26T04:41:12.475Z,74.00
2019-02-26T04:42:11.948Z,69.10
2019-02-26T04:43:10.419Z,74.70
2019-02-26T04:44:08.823Z,72.50
2019-02-26T04:45:09.455Z,72.50
2019-02-26T04:46:10.910Z,71.50
2019-02-26T04:47:08.766Z,70.80
2019-02-26T04:48:08.749Z,71.50
2019-02-26T04:49:08.741Z,75.90
2019-02-26T04:50:09.147Z,74.70
2019-02-26T04:51:08.733Z,71.90
2019-02-26T04:52:10.899Z,73.40
2019-02-26T04:53:11.114Z,71.00
2019-02-26T04:54:08.687Z,69.00
2019-02-26T04:55:08.714Z,74.50
2019-02-26T04:56:12.866Z,75.00
2019-02-26T04:57:09.660Z,77.30
2019-02-26T04:58:10.733Z,74.10
2019-02-26T04:59:09.825Z,73.30
2019-02-26T05:00:10.555Z,74.20
2019-02-26T05:01:10.131Z,78.00
2019-02-26T05:02:08.609Z,75.40
2019-02-26T05:03:11.223Z,74.80
2019-02-26T05:04:09.591Z,71.90
2019-02-26T05:05:08.595Z,74.30
2019-02-26T05:06:10.621Z,74.10
2019-02-26T05:07:12.818Z,74.40
2019-02-26T05:08:10.463Z,73.10
2019-02-26T05:09:10.506Z,72.80
2019-02-26T05:10:08.518Z,73.50
2019-02-26T05:11:08.503Z,71.10
2019-02-26T05:12:08.532Z,73.10
2019-02-26T05:13:09.683Z,71.60
2019-02-26T05:14:09.118Z,73.00
2019-02-26T05:15:11.444Z,72.80
2019-02-26T05:16:08.448Z,70.20
2019-02-26T05:17:08.444Z,74.00
2019-02-26T05:18:08.448Z,70.40
2019-02-26T05:19:10.416Z,73.30
2019-02-26T05:20:10.630Z,72.10
2019-02-26T05:21:10.826Z,72.20
2019-02-26T05:22:08.413Z,71.00
2019-02-26T05:23:08.415Z,72.90
2019-02-26T05:24:08.403Z,73.50
2019-02-26T05:25:10.842Z,71.50
2019-02-26T05:26:11.646Z,74.70
2019-02-26T05:27:10.177Z,73.20
2019-02-26T05:28:11.432Z,76.20
2019-02-26T05:29:08.335Z,75.70
2019-02-26T05:30:09.757Z,73.10
2019-02-26T05:31:09.081Z,70.40
2019-02-26T05:32:09.305Z,70.70
2019-02-26T05:33:08.289Z,69.00
2019-02-26T05:34:08.297Z,73.00
2019-02-26T05:35:08.259Z,71.50
2019-02-26T05:36:09.480Z,73.50
2019-02-26T05:37:11.008Z,72.20
2019-02-26T05:38:09.647Z,71.20
2019-02-26T05:39:08.212Z,69.30
2019-02-26T05:40:10.740Z,70.00
2019-02-26T05:41:08.194Z,72.10
2019-02-26T05:42:08.177Z,70.00
2019-02-26T05:43:08.202Z,73.60
2019-02-26T05:44:10.551Z,72.60
2019-02-26T05:45:09.296Z,71.40
2019-02-26T05:46:08.134Z,70.50
2019-02-26T05:47:08.135Z,69.40
2019-02-26T05:48:08.113Z,74.00
2019-02-26T05:49:12.581Z,71.70
2019-02-26T05:50:12.832Z,70.40
2019-02-26T05:51:09.317Z,71.60
2019-02-26T05:52:08.108Z,75.00
2019-02-26T05:53:10.491Z,75.00
2019-02-26T05:54:11.411Z,72.00
2019-02-26T05:55:09.039Z,71.30
2019-02-26T05:56:08.992Z,72.30
2019-02-26T05:57:10.818Z,72.10
2019-02-26T05:58:10.071Z,73.40
2019-02-26T05:59:09.617Z,71.70
2019-02-26T06:00:08.486Z,72.80
2019-02-26T06:01:07.979Z,73.30
2019-02-26T06:02:10.570Z,69.00
2019-02-26T06:03:09.678Z,72.40
2019-02-26T06:04:09.532Z,73.20
2019-02-26T06:05:07.935Z,72.20
2019-02-26T06:06:07.929Z,70.80
2019-02-26T06:07:07.936Z,70.30
2019-02-26T06:08:07.912Z,70.60
2019-02-26T06:09:07.978Z,70.60
2019-02-26T06:10:07.889Z,67.90
2019-02-26T06:11:07.869Z,69.80
2019-02-26T06:12:07.862Z,69.00
2019-02-26T06:13:10.080Z,74.10
2019-02-26T06:14:12.083Z,69.40
2019-02-26T06:15:08.418Z,69.40
2019-02-26T06:16:07.842Z,72.60
2019-02-26T06:17:09.702Z,71.90
2019-02-26T06:18:07.791Z,70.80
2019-02-26T06:19:08.491Z,73.20
2019-02-26T06:20:08.929Z,74.90
2019-02-26T06:21:07.764Z,71.40
2019-02-26T06:22:08.951Z,71.00
2019-02-26T06:23:07.898Z,75.80
2019-02-26T06:24:07.752Z,71.70
2019-02-26T06:25:13.308Z,73.20
2019-02-26T06:26:13.317Z,71.30
2019-02-26T06:27:11.188Z,76.90
2019-02-26T06:28:12.125Z,71.70
2019-02-26T06:29:08.702Z,72.00
2019-02-26T06:30:09.985Z,76.10
2019-02-26T06:31:11.461Z,77.20
2019-02-26T06:32:09.423Z,76.40
2019-02-26T06:33:09.748Z,76.40
2019-02-26T06:34:08.765Z,77.80
2019-02-26T06:35:08.528Z,77.50
2019-02-26T06:36:07.599Z,75.00
2019-02-26T06:37:09.443Z,75.40
2019-02-26T06:38:09.200Z,77.80
2019-02-26T06:39:07.561Z,80.20
2019-02-26T06:40:07.571Z,76.00
2019-02-26T06:41:07.577Z,76.40
2019-02-26T06:42:08.090Z,75.30
2019-02-26T06:43:07.520Z,75.50
2019-02-26T06:44:07.553Z,76.00
2019-02-26T06:45:08.511Z,75.80
2019-02-26T06:46:09.843Z,77.00
2019-02-26T06:47:09.108Z,75.50
2019-02-26T06:48:07.470Z,81.20
2019-02-26T06:49:07.456Z,75.60
2019-02-26T06:50:08.070Z,78.80
2019-02-26T06:51:07.443Z,74.50
2019-02-26T06:52:08.351Z,76.60
2019-02-26T06:53:08.659Z,76.20
2019-02-26T06:54:07.406Z,77.50
2019-02-26T06:55:07.774Z,76.30
2019-02-26T06:56:07.388Z,78.20
2019-02-26T06:57:07.377Z,74.60
2019-02-26T06:58:07.362Z,75.10
2019-02-26T06:59:07.912Z,74.20
2019-02-26T07:00:07.335Z,77.50
2019-02-26T07:01:09.407Z,75.90
2019-02-26T07:02:08.829Z,73.80
2019-02-26T07:03:07.301Z,77.90
2019-02-26T07:04:07.341Z,76.50
2019-02-26T07:05:07.292Z,76.80
2019-02-26T07:06:07.283Z,76.70
2019-02-26T07:07:10.841Z,78.60
2019-02-26T07:08:08.245Z,80.00
2019-02-26T07:09:08.729Z,76.30
2019-02-26T07:10:07.265Z,76.40
2019-02-26T07:11:07.451Z,78.10
2019-02-26T07:12:07.215Z,77.30
2019-02-26T07:13:09.284Z,79.70
2019-02-26T07:14:08.120Z,77.10
2019-02-26T07:15:07.193Z,79.20
2019-02-26T07:16:07.204Z,77.70
2019-02-26T07:17:07.166Z,79.90
2019-02-26T07:18:09.440Z,76.20
2019-02-26T07:19:09.155Z,74.90
2019-02-26T07:20:07.171Z,76.40
2019-02-26T07:21:07.138Z,76.90
2019-02-26T07:22:08.485Z,77.30
2019-02-26T07:23:08.767Z,75.00
2019-02-26T07:24:07.771Z,78.10
2019-02-26T07:25:08.355Z,76.50
2019-02-26T07:26:07.138Z,76.10
2019-02-26T07:27:08.889Z,79.20
2019-02-26T07:28:07.040Z,75.60
2019-02-26T07:29:08.118Z,78.20
2019-02-26T07:30:07.035Z,77.20
2019-02-26T07:31:08.092Z,77.90
2019-02-26T07:32:06.994Z,73.80
2019-02-26T07:33:08.061Z,77.40
2019-02-26T07:34:06.977Z,77.00
2019-02-26T07:35:08.717Z,78.90
2019-02-26T07:36:06.965Z,74.30
2019-02-26T07:37:08.822Z,78.30
2019-02-26T07:38:06.942Z,72.90
2019-02-26T07:39:06.936Z,76.00
2019-02-26T07:40:08.783Z,81.40
2019-02-26T07:41:06.909Z,82.60
2019-02-26T07:42:09.089Z,88.30
2019-02-26T07:43:09.078Z,84.60
2019-02-26T07:44:12.684Z,86.10
2019-02-26T07:45:14.582Z,85.60
2019-02-26T07:46:10.409Z,81.00
2019-02-26T07:47:08.856Z,82.70
2019-02-26T07:48:06.844Z,80.80
2019-02-26T07:49:07.420Z,79.90
2019-02-26T07:50:08.837Z,79.30
2019-02-26T07:51:06.803Z,80.60
2019-02-26T07:52:08.669Z,80.20
2019-02-26T07:53:06.773Z,79.90
2019-02-26T07:54:06.790Z,78.20
2019-02-26T07:55:09.227Z,78.60
2019-02-26T07:56:08.680Z,82.20
2019-02-26T07:57:06.721Z,83.90
2019-02-26T07:58:08.770Z,80.00
2019-02-26T07:59:09.411Z,79.00
2019-02-26T08:00:06.733Z,78.80
2019-02-26T08:01:06.726Z,78.90
2019-02-26T08:02:08.671Z,79.20
2019-02-26T08:03:06.666Z,76.50
2019-02-26T08:04:08.470Z,83.30
2019-02-26T08:05:06.652Z,82.10
2019-02-26T08:06:09.057Z,78.60
2019-02-26T08:07:06.654Z,79.10
2019-02-26T08:08:06.615Z,80.60
2019-02-26T08:09:07.100Z,77.70
2019-02-26T08:10:08.108Z,76.30
2019-02-26T08:11:06.613Z,78.00
2019-02-26T08:12:08.863Z,81.40
2019-02-26T08:13:08.001Z,77.90
2019-02-26T08:14:06.550Z,77.20
2019-02-26T08:15:08.727Z,75.90
2019-02-26T08:16:06.530Z,77.30
2019-02-26T08:17:06.539Z,77.70
2019-02-26T08:18:06.514Z,79.00
2019-02-26T08:19:06.541Z,79.10
2019-02-26T08:20:08.124Z,81.20
2019-02-26T08:21:06.475Z,79.50
2019-02-26T08:22:06.517Z,81.50
2019-02-26T08:23:06.464Z,78.00
2019-02-26T08:24:06.453Z,79.70
2019-02-26T08:25:06.446Z,77.80
2019-02-26T08:26:06.457Z,77.00
2019-02-26T08:27:08.531Z,74.60
2019-02-26T08:28:06.436Z,76.10
2019-02-26T08:29:07.573Z,74.20
2019-02-26T08:30:06.880Z,76.60
2019-02-26T08:31:06.396Z,82.20
2019-02-26T08:32:06.410Z,78.30
2019-02-26T08:33:07.380Z,79.10
2019-02-26T08:34:06.355Z,79.20
2019-02-26T08:35:06.323Z,77.80
2019-02-26T08:36:06.327Z,78.90
2019-02-26T08:37:06.305Z,78.10
2019-02-26T08:38:06.416Z,79.00
2019-02-26T08:39:06.351Z,81.20
2019-02-26T08:40:06.300Z,75.00
2019-02-26T08:41:06.259Z,76.50
2019-02-26T08:42:06.258Z,80.00
2019-02-26T08:43:06.243Z,80.80
2019-02-26T08:44:06.273Z,77.00
2019-02-26T08:45:06.222Z,78.00
2019-02-26T08:46:07.292Z,77.70
2019-02-26T08:47:08.875Z,79.40
2019-02-26T08:48:07.195Z,78.60
2019-02-26T08:49:08.681Z,76.30
2019-02-26T08:50:07.371Z,76.70
2019-02-26T08:51:08.292Z,79.20
2019-02-26T08:52:07.144Z,78.30
2019-02-26T08:53:06.146Z,78.00
2019-02-26T08:54:06.137Z,75.60
2019-02-26T08:55:07.185Z,75.30
2019-02-26T08:56:08.315Z,76.20
2019-02-26T08:57:06.101Z,80.50
2019-02-26T08:58:07.652Z,78.90
2019-02-26T08:59:06.071Z,81.40
2019-02-26T09:00:06.080Z,78.70
2019-02-26T09:01:06.083Z,81.60
2019-02-26T09:02:06.039Z,78.20
2019-02-26T09:03:08.268Z,80.40
2019-02-26T09:04:06.036Z,77.50
2019-02-26T09:05:07.514Z,77.80
2019-02-26T09:06:12.764Z,79.00
2019-02-26T09:07:07.024Z,78.80
2019-02-26T09:08:08.271Z,79.90
2019-02-26T09:09:06.851Z,79.90
2019-02-26T09:10:07.207Z,79.60
2019-02-26T09:11:08.063Z,80.20
2019-02-26T09:12:05.937Z,77.10
2019-02-26T09:13:06.777Z,78.60
2019-02-26T09:14:07.083Z,79.90
2019-02-26T09:15:05.906Z,78.70
2019-02-26T09:16:07.840Z,80.80
2019-02-26T09:17:05.893Z,76.30
2019-02-26T09:18:05.893Z,78.20
2019-02-26T09:19:05.922Z,76.40
2019-02-26T09:20:09.356Z,78.70
2019-02-26T09:21:07.183Z,77.60
2019-02-26T09:22:09.643Z,75.10
2019-02-26T09:23:06.829Z,73.00
2019-02-26T09:24:07.678Z,73.40
2019-02-26T09:25:05.838Z,74.60
2019-02-26T09:26:07.014Z,76.00
2019-02-26T09:27:05.777Z,74.30
2019-02-26T09:28:05.776Z,75.40
2019-02-26T09:29:05.766Z,75.40
2019-02-26T09:30:06.740Z,77.20
2019-02-26T09:31:06.701Z,75.20
2019-02-26T09:32:07.391Z,77.70
2019-02-26T09:33:06.407Z,77.10
2019-02-26T09:34:05.723Z,76.60
2019-02-26T09:35:05.707Z,78.70
2019-02-26T09:36:05.718Z,76.20
2019-02-26T09:37:07.921Z,77.90
2019-02-26T09:38:05.662Z,78.40
2019-02-26T09:39:06.423Z,79.60
2019-02-26T09:40:05.653Z,76.30
2019-02-26T09:41:05.632Z,77.50
2019-02-26T09:42:06.624Z,74.60
2019-02-26T09:43:06.259Z,76.80
2019-02-26T09:44:06.766Z,75.40
2019-02-26T09:45:05.587Z,80.80
2019-02-26T09:46:08.611Z,76.20
2019-02-26T09:47:07.544Z,77.70
2019-02-26T09:48:05.564Z,76.70
2019-02-26T09:49:09.789Z,77.10
2019-02-26T09:50:06.539Z,77.10
2019-02-26T09:51:07.585Z,75.30
2019-02-26T09:52:06.551Z,77.60
2019-02-26T09:53:05.535Z,76.80
2019-02-26T09:54:05.497Z,79.50
2019-02-26T09:55:05.508Z,78.00
2019-02-26T09:56:05.472Z,78.50
2019-02-26T09:57:06.022Z,81.60
2019-02-26T09:58:05.460Z,77.90
2019-02-26T09:59:07.115Z,76.10
2019-02-26T10:00:05.628Z,79.80
2019-02-26T10:01:06.845Z,77.40
2019-02-26T10:02:06.089Z,78.10
2019-02-26T10:03:07.983Z,79.20
2019-02-26T10:04:05.495Z,77.50
2019-02-26T10:05:06.369Z,75.80
2019-02-26T10:06:05.370Z,76.70
2019-02-26T10:07:07.544Z,79.80
2019-02-26T10:08:05.460Z,78.80
2019-02-26T10:09:05.368Z,77.70
2019-02-26T10:10:06.444Z,76.80
2019-02-26T10:11:05.399Z,81.30
2019-02-26T10:12:07.471Z,80.20
2019-02-26T10:13:05.295Z,76.20
2019-02-26T10:14:07.466Z,77.50
2019-02-26T10:15:05.410Z,76.80
2019-02-26T10:16:06.462Z,79.60
2019-02-26T10:17:05.256Z,76.60
2019-02-26T10:18:07.252Z,76.20
2019-02-26T10:19:05.231Z,76.30
2019-02-26T10:20:08.588Z,76.90
2019-02-26T10:21:06.781Z,75.50
2019-02-26T10:22:09.043Z,76.30
2019-02-26T10:23:06.280Z,79.30
2019-02-26T10:24:05.177Z,75.80
2019-02-26T10:25:05.164Z,79.60
2019-02-26T10:26:05.766Z,73.80
2019-02-26T10:27:06.030Z,75.50
2019-02-26T10:28:08.697Z,76.10
2019-02-26T10:29:07.988Z,76.60
2019-02-26T10:30:07.774Z,76.00
2019-02-26T10:31:09.131Z,74.40
2019-02-26T10:32:05.091Z,80.20
2019-02-26T10:33:05.178Z,78.10
2019-02-26T10:34:07.806Z,79.80
2019-02-26T10:35:06.574Z,78.00
2019-02-26T10:36:05.546Z,75.00
2019-02-26T10:37:05.069Z,78.30
2019-02-26T10:38:07.666Z,79.60
2019-02-26T10:39:06.746Z,76.20
2019-02-26T10:40:06.936Z,78.10
2019-02-26T10:41:05.185Z,79.80
2019-02-26T10:42:05.012Z,76.00
2019-02-26T10:43:04.977Z,76.20
2019-02-26T10:44:04.979Z,77.50
2019-02-26T10:45:04.979Z,79.90
2019-02-26T10:46:04.952Z,78.10
2019-02-26T10:47:07.747Z,74.60
2019-02-26T10:48:04.955Z,79.30
2019-02-26T10:49:04.928Z,77.90
2019-02-26T10:50:04.905Z,76.30
2019-02-26T10:51:06.649Z,75.70
2019-02-26T10:52:04.869Z,75.20
2019-02-26T10:53:09.731Z,76.70
2019-02-26T10:54:08.937Z,76.70
2019-02-26T10:55:05.839Z,75.70
2019-02-26T10:56:04.851Z,77.40
2019-02-26T10:57:07.482Z,76.70
2019-02-26T10:58:10.001Z,75.40
2019-02-26T10:59:09.018Z,76.00
2019-02-26T11:00:06.394Z,76.20
2019-02-26T11:01:05.388Z,76.50
2019-02-26T11:02:04.770Z,74.80
2019-02-26T11:03:06.571Z,76.10
2019-02-26T11:04:04.812Z,73.80
2019-02-26T11:05:04.767Z,77.20
2019-02-26T11:06:07.180Z,74.30
2019-02-26T11:07:08.440Z,74.40
2019-02-26T11:08:08.870Z,74.50
2019-02-26T11:09:04.728Z,70.00
2019-02-26T11:10:04.689Z,70.80
2019-02-26T11:11:07.213Z,72.40
2019-02-26T11:12:06.367Z,75.60
2019-02-26T11:13:04.657Z,72.50
2019-02-26T11:14:05.347Z,72.60
2019-02-26T11:15:06.743Z,73.00
2019-02-26T11:16:04.621Z,73.10
2019-02-26T11:17:04.612Z,72.40
2019-02-26T11:18:04.589Z,70.30
2019-02-26T11:19:07.005Z,66.70
2019-02-26T11:20:07.551Z,66.60
2019-02-26T11:21:04.595Z,66.00
2019-02-26T11:22:04.560Z,70.20
2019-02-26T11:23:07.983Z,66.40
2019-02-26T11:24:06.117Z,64.50
2019-02-26T11:25:04.522Z,65.30
2019-02-26T11:26:06.516Z,65.40
2019-02-26T11:27:04.538Z,66.00
2019-02-26T11:28:05.582Z,63.20
2019-02-26T11:29:04.502Z,64.10
2019-02-26T11:30:05.089Z,63.90
2019-02-26T11:31:04.438Z,64.30
2019-02-26T11:32:07.622Z,64.60
2019-02-26T11:33:06.006Z,65.10
2019-02-26T11:34:07.284Z,63.50
2019-02-26T11:35:05.407Z,63.80
2019-02-26T11:36:05.523Z,62.30
2019-02-26T11:37:08.679Z,64.80
2019-02-26T11:38:04.399Z,63.70
2019-02-26T11:39:06.729Z,66.30
2019-02-26T11:40:05.516Z,54.00
2019-02-26T11:41:04.371Z,51.90
2019-02-26T11:42:04.327Z,48.60
2019-02-26T11:43:11.208Z,48.40
2019-02-26T11:44:09.954Z,49.00
2019-02-26T11:45:07.440Z,47.80
2019-02-26T11:46:06.263Z,44.60
2019-02-26T11:47:04.292Z,46.50
2019-02-26T11:48:06.197Z,46.20
2019-02-26T11:49:04.274Z,48.80
2019-02-26T11:50:06.839Z,45.40
2019-02-26T11:51:04.226Z,46.90
2019-02-26T11:52:04.671Z,46.70
2019-02-26T11:53:04.231Z,47.10
2019-02-26T11:54:05.056Z,45.80
2019-02-26T11:55:06.559Z,46.60
2019-02-26T11:56:04.163Z,47.00
2019-02-26T11:57:05.184Z,47.40
2019-02-26T11:58:07.703Z,45.40
2019-02-26T11:59:08.692Z,46.60
2019-02-26T12:00:06.365Z,46.20
2019-02-26T12:01:04.131Z,41.10
2019-02-26T12:02:06.256Z,42.20
2019-02-26T12:03:04.128Z,42.70
2019-02-26T12:04:06.092Z,44.00
2019-02-26T12:05:05.611Z,42.40
2019-02-26T12:06:06.873Z,45.50
2019-02-26T12:07:06.618Z,46.70
2019-02-26T12:08:05.120Z,44.10
2019-02-26T12:09:06.099Z,47.60
2019-02-26T12:10:09.432Z,45.00
2019-02-26T12:11:06.793Z,40.30
2019-02-26T12:12:06.248Z,42.10
2019-02-26T12:13:03.985Z,43.60
2019-02-26T12:14:03.997Z,40.50
2019-02-26T12:15:04.869Z,44.00
2019-02-26T12:16:03.953Z,41.50
2019-02-26T12:17:03.958Z,39.30
2019-02-26T12:18:03.940Z,40.50
2019-02-26T12:19:05.971Z,41.70
2019-02-26T12:20:03.919Z,39.40
2019-02-26T12:21:06.001Z,41.20
2019-02-26T12:22:05.841Z,38.80
2019-02-26T12:23:03.888Z,42.60
2019-02-26T12:24:05.966Z,42.20
2019-02-26T12:25:05.729Z,44.70
2019-02-26T12:26:04.022Z,44.20
2019-02-26T12:27:03.831Z,44.20
2019-02-26T12:28:05.398Z,42.30
2019-02-26T12:29:04.481Z,39.10
2019-02-26T12:30:03.838Z,39.70
2019-02-26T12:31:05.122Z,38.20
2019-02-26T12:32:04.798Z,37.40
2019-02-26T12:33:03.774Z,37.80
2019-02-26T12:34:03.768Z,35.80
2019-02-26T12:35:05.775Z,36.00
2019-02-26T12:36:05.268Z,38.60
2019-02-26T12:37:06.617Z,39.00
2019-02-26T12:38:17.294Z,39.10
2019-02-26T12:39:04.716Z,38.70
2019-02-26T12:40:03.727Z,37.80
2019-02-26T12:41:06.799Z,39.50
2019-02-26T12:42:07.070Z,38.90
2019-02-26T12:43:06.606Z,40.00
2019-02-26T12:44:06.166Z,38.20
2019-02-26T12:45:06.826Z,38.00
2019-02-26T12:46:08.479Z,35.10
2019-02-26T12:47:03.629Z,35.50
2019-02-26T12:48:03.608Z,37.70
2019-02-26T12:49:05.726Z,35.40
2019-02-26T12:50:05.994Z,35.20
2019-02-26T12:51:05.321Z,31.70
2019-02-26T12:52:03.704Z,33.70